createdAt,value
2018-03-12T00:00:58.705Z,25.33
2018-03-12T00:02:03.918Z,25.70
2018-03-12T00:03:09.162Z,23.17
2018-03-12T00:04:13.621Z,25.25
2018-03-12T00:05:18.095Z,22.15
2018-03-12T00:06:22.541Z,23.27
2018-03-12T00:07:26.998Z,23.55
2018-03-12T00:08:32.230Z,21.87
2018-03-12T00:09:37.591Z,22.42
2018-03-12T00:10:42.126Z,26.85
2018-03-12T00:11:46.581Z,26.40
2018-03-12T00:12:51.798Z,23.95
2018-03-12T00:13:57.036Z,23.17
2018-03-12T00:15:02.255Z,23.65
2018-03-12T00:16:06.737Z,23.17
2018-03-12T00:17:11.186Z,23.42
2018-03-12T00:18:16.398Z,20.48
2018-03-12T00:19:20.904Z,22.45
2018-03-12T00:20:25.354Z,25.23
2018-03-12T00:21:29.798Z,23.90
2018-03-12T00:22:35.441Z,22.73
2018-03-12T00:23:39.900Z,23.30
2018-03-12T00:24:45.143Z,25.10
2018-03-12T00:25:50.360Z,23.27
2018-03-12T00:26:55.578Z,23.00
2018-03-12T00:28:00.800Z,23.15
2018-03-12T00:29:06.764Z,25.00
2018-03-12T00:30:11.997Z,23.17
2018-03-12T00:31:17.210Z,23.92
2018-03-12T00:32:21.663Z,25.23
2018-03-12T00:33:26.118Z,24.60
2018-03-12T00:34:30.610Z,22.45
2018-03-12T00:35:35.226Z,27.13
2018-03-12T00:36:39.806Z,28.48
2018-03-12T00:37:44.265Z,23.65
2018-03-12T00:38:48.717Z,23.50
2018-03-12T00:39:53.175Z,24.08
2018-03-12T00:40:57.641Z,25.45
2018-03-12T00:42:02.090Z,24.77
2018-03-12T00:43:06.546Z,24.83
2018-03-12T00:44:11.770Z,27.67
2018-03-12T00:45:17.077Z,27.67
2018-03-12T00:46:21.542Z,26.30
2018-03-12T00:47:25.997Z,26.65
2018-03-12T00:48:30.445Z,25.45
2018-03-12T00:49:35.672Z,25.77
2018-03-12T00:50:40.900Z,27.80
2018-03-12T00:51:46.134Z,25.60
2018-03-12T00:52:51.356Z,26.65
2018-03-12T00:53:56.573Z,28.38
2018-03-12T00:55:01.021Z,25.48
2018-03-12T00:56:05.137Z,28.77
2018-03-12T00:57:09.620Z,25.00
2018-03-12T00:58:14.837Z,27.85
2018-03-12T00:59:20.086Z,29.15
2018-03-12T01:00:25.296Z,27.77
2018-03-12T01:01:30.514Z,24.87
2018-03-12T01:02:34.990Z,27.55
2018-03-12T01:03:39.447Z,28.60
2018-03-12T01:04:44.666Z,25.40
2018-03-12T01:05:49.123Z,28.87
2018-03-12T01:06:53.567Z,28.08
2018-03-12T01:07:58.038Z,30.45
2018-03-12T01:09:07.968Z,27.30
2018-03-12T01:10:12.414Z,27.65
2018-03-12T01:11:16.861Z,25.12
2018-03-12T01:12:21.313Z,26.10
2018-03-12T01:13:25.793Z,27.00
2018-03-12T01:14:31.014Z,23.98
2018-03-12T01:15:35.495Z,25.17
2018-03-12T01:16:39.929Z,24.37
2018-03-12T01:17:44.398Z,25.10
2018-03-12T01:18:48.883Z,23.40
2018-03-12T01:19:54.106Z,23.95
2018-03-12T01:20:59.322Z,24.05
2018-03-12T01:22:04.545Z,23.80
2018-03-12T01:23:09.051Z,22.20
2018-03-12T01:24:13.661Z,24.63
2018-03-12T01:25:18.114Z,24.87
2018-03-12T01:26:22.578Z,24.00
2018-03-12T01:27:27.041Z,23.60
2018-03-12T01:28:31.506Z,22.87
2018-03-12T01:29:35.965Z,26.92
2018-03-12T01:30:40.428Z,24.17
2018-03-12T01:31:45.649Z,22.50
2018-03-12T01:32:50.102Z,23.60
2018-03-12T01:33:55.313Z,26.00
2018-03-12T01:35:00.562Z,25.95
2018-03-12T01:36:05.798Z,27.83
2018-03-12T01:37:10.253Z,23.90
2018-03-12T01:38:15.628Z,23.05
2018-03-12T01:39:20.850Z,24.35
2018-03-12T01:40:26.106Z,22.70
2018-03-12T01:41:30.558Z,25.15
2018-03-12T01:42:35.012Z,23.10
2018-03-12T01:43:40.223Z,24.67
2018-03-12T01:44:44.769Z,25.88
2018-03-12T01:45:49.453Z,26.50
2018-03-12T01:46:53.893Z,26.30
2018-03-12T01:47:58.346Z,25.50
2018-03-12T01:49:02.804Z,25.88
2018-03-12T01:50:08.016Z,24.67
2018-03-12T01:51:12.497Z,25.58
2018-03-12T01:52:16.947Z,21.48
2018-03-12T01:53:22.169Z,24.95
2018-03-12T01:54:27.379Z,25.65
2018-03-12T01:55:31.838Z,26.50
2018-03-12T01:56:36.301Z,22.50
2018-03-12T01:57:40.755Z,25.10
2018-03-12T01:58:45.202Z,24.87
2018-03-12T01:59:49.666Z,22.05
2018-03-12T02:00:55.363Z,22.80
2018-03-12T02:01:59.843Z,25.92
2018-03-12T02:03:03.968Z,25.23
2018-03-12T02:04:08.413Z,25.80
2018-03-12T02:05:12.881Z,23.20
2018-03-12T02:06:17.326Z,24.50
2018-03-12T02:07:21.801Z,25.35
2018-03-12T02:08:26.317Z,25.58
2018-03-12T02:09:30.782Z,28.62
2018-03-12T02:10:35.986Z,25.25
2018-03-12T02:11:40.434Z,24.95
2018-03-12T02:12:45.672Z,26.52
2018-03-12T02:13:50.132Z,29.12
2018-03-12T02:14:54.581Z,30.55
2018-03-12T02:15:59.151Z,26.05
2018-03-12T02:17:03.601Z,25.90
2018-03-12T02:18:09.424Z,24.95
2018-03-12T02:19:13.874Z,27.08
2018-03-12T02:20:18.354Z,28.90
2018-03-12T02:21:23.867Z,27.13
2018-03-12T02:22:28.325Z,26.67
2018-03-12T02:23:32.794Z,26.77
2018-03-12T02:24:37.266Z,24.23
2018-03-12T02:25:41.711Z,27.08
2018-03-12T02:26:46.175Z,24.45
2018-03-12T02:27:50.642Z,28.10
2018-03-12T02:28:55.109Z,28.55
2018-03-12T02:29:59.565Z,26.33
2018-03-12T02:31:04.018Z,25.92
2018-03-12T02:32:08.471Z,26.90
2018-03-12T02:33:12.917Z,26.95
2018-03-12T02:34:18.207Z,26.85
2018-03-12T02:35:22.658Z,24.85
2018-03-12T02:36:27.730Z,24.23
2018-03-12T02:37:32.177Z,20.88
2018-03-12T02:38:37.401Z,24.48
2018-03-12T02:39:41.874Z,21.87
2018-03-12T02:40:46.336Z,22.00
2018-03-12T02:41:50.785Z,21.52
2018-03-12T02:42:55.249Z,23.90
2018-03-12T02:43:59.510Z,21.25
2018-03-12T02:45:03.987Z,22.35
2018-03-12T02:46:09.210Z,20.80
2018-03-12T02:47:14.435Z,24.48
2018-03-12T02:48:19.656Z,23.30
2018-03-12T02:49:24.109Z,25.08
2018-03-12T02:50:28.653Z,21.45
2018-03-12T02:51:33.102Z,24.27
2018-03-12T02:52:38.327Z,21.92
2018-03-12T02:53:42.774Z,23.52
2018-03-12T02:54:47.221Z,22.37
2018-03-12T02:55:51.695Z,23.27
2018-03-12T02:56:56.151Z,22.83
2018-03-12T02:58:00.601Z,24.77
2018-03-12T02:59:05.817Z,26.23
2018-03-12T03:00:11.043Z,23.20
2018-03-12T03:01:16.088Z,22.45
2018-03-12T03:02:20.331Z,22.13
2018-03-12T03:03:24.786Z,24.70
2018-03-12T03:04:29.671Z,24.70
2018-03-12T03:05:34.133Z,23.10
2018-03-12T03:06:39.366Z,24.85
2018-03-12T03:07:43.811Z,25.15
2018-03-12T03:08:48.060Z,25.25
2018-03-12T03:09:53.275Z,23.33
2018-03-12T03:10:58.494Z,23.45
2018-03-12T03:12:02.978Z,24.30
2018-03-12T03:13:07.093Z,22.83
2018-03-12T03:14:11.543Z,22.13
2018-03-12T03:15:16.765Z,25.65
2018-03-12T03:16:21.213Z,25.98
2018-03-12T03:17:25.718Z,23.20
2018-03-12T03:18:30.938Z,25.40
2018-03-12T03:19:36.151Z,24.17
2018-03-12T03:20:41.381Z,23.55
2018-03-12T03:21:46.622Z,23.87
2018-03-12T03:22:51.863Z,28.42
2018-03-12T03:23:56.138Z,23.35
2018-03-12T03:25:00.417Z,24.30
2018-03-12T03:26:05.011Z,23.45
2018-03-12T03:27:09.476Z,26.52
2018-03-12T03:28:14.525Z,29.02
2018-03-12T03:29:19.753Z,24.58
2018-03-12T03:30:30.534Z,25.65
2018-03-12T03:31:34.995Z,26.17
2018-03-12T03:32:39.435Z,24.98
2018-03-12T03:33:43.930Z,27.00
2018-03-12T03:34:48.373Z,25.23
2018-03-12T03:35:52.846Z,24.90
2018-03-12T03:36:57.293Z,24.75
2018-03-12T03:38:01.776Z,24.75
2018-03-12T03:39:07.024Z,28.02
2018-03-12T03:40:11.492Z,24.92
2018-03-12T03:41:15.934Z,25.67
2018-03-12T03:42:21.146Z,26.25
2018-03-12T03:43:25.610Z,25.20
2018-03-12T03:44:30.082Z,25.67
2018-03-12T03:45:35.302Z,24.77
2018-03-12T03:46:40.510Z,24.10
2018-03-12T03:47:44.973Z,27.45
2018-03-12T03:48:49.433Z,27.23
2018-03-12T03:49:53.905Z,25.23
2018-03-12T03:50:58.345Z,27.20
2018-03-12T03:52:02.802Z,28.73
2018-03-12T03:53:08.058Z,26.12
2018-03-12T03:54:12.502Z,26.87
2018-03-12T03:55:16.980Z,27.85
2018-03-12T03:56:21.429Z,24.80
2018-03-12T03:57:26.649Z,30.67
2018-03-12T03:58:31.093Z,25.75
2018-03-12T03:59:36.322Z,25.92
2018-03-12T04:00:41.558Z,26.42
2018-03-12T04:01:46.769Z,23.90
2018-03-12T04:02:51.993Z,27.58
2018-03-12T04:03:57.217Z,23.60
2018-03-12T04:05:03.179Z,24.67
2018-03-12T04:06:07.660Z,22.87
2018-03-12T04:07:12.107Z,25.12
2018-03-12T04:08:17.322Z,23.40
2018-03-12T04:09:21.775Z,21.42
2018-03-12T04:10:26.225Z,22.52
2018-03-12T04:11:30.696Z,21.95
2018-03-12T04:12:35.160Z,22.60
2018-03-12T04:13:39.609Z,23.73
2018-03-12T04:14:44.071Z,21.20
2018-03-12T04:15:48.192Z,20.88
2018-03-12T04:16:52.684Z,20.90
2018-03-12T04:17:57.122Z,24.45
2018-03-12T04:19:02.351Z,22.75
2018-03-12T04:20:07.570Z,22.58
2018-03-12T04:21:12.025Z,21.62
2018-03-12T04:22:16.507Z,24.30
2018-03-12T04:23:21.730Z,23.00
2018-03-12T04:24:26.949Z,22.08
2018-03-12T04:25:31.402Z,21.55
2018-03-12T04:26:35.856Z,23.70
2018-03-12T04:27:40.322Z,23.70
2018-03-12T04:28:44.790Z,22.60
2018-03-12T04:29:49.229Z,22.87
2018-03-12T04:30:54.441Z,22.33
2018-03-12T04:31:59.660Z,21.67
2018-03-12T04:33:04.147Z,22.67
2018-03-12T04:34:08.625Z,22.33
2018-03-12T04:35:13.080Z,21.12
2018-03-12T04:36:17.521Z,22.75
2018-03-12T04:37:22.743Z,21.62
2018-03-12T04:38:27.997Z,21.62
2018-03-12T04:39:32.459Z,22.87
2018-03-12T04:40:36.913Z,22.87
2018-03-12T04:41:42.129Z,20.67
2018-03-12T04:42:47.346Z,20.15
2018-03-12T04:43:51.832Z,20.40
2018-03-12T04:44:56.450Z,19.73
2018-03-12T04:46:00.723Z,17.50
2018-03-12T04:47:05.187Z,18.27
2018-03-12T04:48:09.647Z,18.60
2018-03-12T04:49:14.113Z,18.45
2018-03-12T04:50:19.329Z,18.20
2018-03-12T04:51:23.782Z,19.50
2018-03-12T04:52:28.238Z,18.15
2018-03-12T04:53:32.690Z,20.33
2018-03-12T04:54:38.102Z,19.08
2018-03-12T04:55:42.571Z,17.90
2018-03-12T04:56:47.025Z,18.77
2018-03-12T04:57:51.489Z,18.65
2018-03-12T04:58:55.949Z,18.15
2018-03-12T05:00:00.441Z,18.90
2018-03-12T05:01:04.901Z,19.05
2018-03-12T05:02:09.350Z,18.10
2018-03-12T05:03:13.806Z,19.15
2018-03-12T05:04:19.017Z,19.12
2018-03-12T05:05:23.504Z,20.50
2018-03-12T05:06:27.950Z,19.70
2018-03-12T05:07:33.173Z,18.25
2018-03-12T05:08:38.405Z,19.52
2018-03-12T05:09:42.867Z,20.30
2018-03-12T05:10:47.340Z,20.10
2018-03-12T05:11:52.563Z,19.33
2018-03-12T05:12:57.790Z,19.45
2018-03-12T05:14:02.257Z,20.10
2018-03-12T05:15:06.701Z,20.17
2018-03-12T05:16:12.689Z,21.15
2018-03-12T05:17:17.161Z,19.65
2018-03-12T05:18:21.635Z,20.60
2018-03-12T05:19:26.101Z,21.25
2018-03-12T05:20:31.394Z,23.40
2018-03-12T05:21:35.867Z,22.62
2018-03-12T05:22:40.340Z,21.20
2018-03-12T05:23:44.791Z,22.40
2018-03-12T05:24:49.246Z,21.65
2018-03-12T05:25:53.682Z,20.80
2018-03-12T05:26:58.926Z,22.80
2018-03-12T05:28:03.815Z,21.35
2018-03-12T05:29:08.245Z,20.90
2018-03-12T05:30:13.487Z,21.90
2018-03-12T05:31:18.807Z,20.60
2018-03-12T05:32:23.308Z,21.05
2018-03-12T05:33:27.748Z,22.35
2018-03-12T05:34:32.212Z,21.50
2018-03-12T05:35:36.714Z,21.58
2018-03-12T05:36:42.134Z,20.70
2018-03-12T05:37:46.618Z,21.83
2018-03-12T05:38:51.068Z,21.90
2018-03-12T05:39:55.528Z,20.70
2018-03-12T05:41:00.749Z,19.05
2018-03-12T05:42:05.962Z,21.37
2018-03-12T05:43:10.442Z,18.65
2018-03-12T05:44:14.910Z,19.90
2018-03-12T05:45:19.391Z,18.73
2018-03-12T05:46:23.833Z,18.87
2018-03-12T05:47:28.288Z,19.02
2018-03-12T05:48:32.760Z,20.20
2018-03-12T05:49:37.219Z,18.87
2018-03-12T05:50:41.673Z,19.70
2018-03-12T05:51:46.912Z,17.92
2018-03-12T05:52:52.122Z,18.50
2018-03-12T05:53:57.446Z,19.35
2018-03-12T05:55:01.922Z,20.17
2018-03-12T05:56:06.472Z,19.27
2018-03-12T05:57:11.270Z,19.70
2018-03-12T05:58:15.780Z,23.12
2018-03-12T05:59:20.255Z,17.90
2018-03-12T06:00:24.714Z,20.35
2018-03-12T06:01:30.671Z,19.83
2018-03-12T06:02:35.162Z,18.75
2018-03-12T06:03:39.610Z,18.87
2018-03-12T06:04:45.172Z,18.40
2018-03-12T06:05:49.622Z,17.62
2018-03-12T06:06:54.069Z,17.95
2018-03-12T06:07:59.326Z,18.85
2018-03-12T06:09:03.257Z,19.83
2018-03-12T06:10:07.750Z,18.65
2018-03-12T06:11:12.206Z,20.00
2018-03-12T06:12:17.438Z,19.00
2018-03-12T06:13:22.666Z,18.42
2018-03-12T06:14:27.895Z,19.15
2018-03-12T06:15:33.458Z,18.65
2018-03-12T06:16:37.926Z,18.00
2018-03-12T06:17:42.434Z,18.52
2018-03-12T06:18:46.886Z,18.87
2018-03-12T06:19:51.353Z,18.40
2018-03-12T06:20:55.826Z,18.50
2018-03-12T06:22:00.287Z,18.05
2018-03-12T06:23:04.746Z,19.52
2018-03-12T06:24:09.207Z,20.50
2018-03-12T06:25:14.016Z,19.95
2018-03-12T06:26:18.510Z,19.70
2018-03-12T06:27:22.969Z,17.67
2018-03-12T06:28:28.194Z,18.40
2018-03-12T06:29:33.424Z,18.50
2018-03-12T06:30:38.638Z,18.20
2018-03-12T06:31:43.133Z,18.15
2018-03-12T06:32:47.600Z,19.00
2018-03-12T06:33:52.157Z,16.75
2018-03-12T06:34:56.687Z,17.33
2018-03-12T06:36:01.412Z,19.10
2018-03-12T06:37:06.005Z,17.90
2018-03-12T06:38:10.531Z,18.40
2018-03-12T06:39:15.097Z,18.45
2018-03-12T06:40:19.650Z,17.73
2018-03-12T06:41:24.602Z,19.02
2018-03-12T06:42:29.935Z,17.60
2018-03-12T06:43:35.207Z,16.85
2018-03-12T06:44:39.699Z,18.73
2018-03-12T06:45:44.227Z,18.52
2018-03-12T06:46:48.677Z,18.05
2018-03-12T06:47:53.181Z,19.23
2018-03-12T06:48:57.689Z,18.30
2018-03-12T06:50:02.325Z,20.52
2018-03-12T06:51:07.564Z,19.23
2018-03-12T06:52:12.050Z,18.42
2018-03-12T06:53:16.509Z,19.15
2018-03-12T06:54:20.970Z,19.67
2018-03-12T06:55:25.438Z,18.75
2018-03-12T06:56:29.992Z,18.45
2018-03-12T06:57:34.428Z,19.80
2018-03-12T06:58:39.677Z,18.77
2018-03-12T06:59:44.142Z,20.08
2018-03-12T07:00:48.598Z,17.90
2018-03-12T07:01:53.044Z,19.27
2018-03-12T07:02:57.493Z,18.42
2018-03-12T07:04:01.979Z,19.42
2018-03-12T07:05:06.426Z,24.23
2018-03-12T07:06:11.650Z,19.95
2018-03-12T07:07:16.896Z,18.92
2018-03-12T07:08:22.114Z,20.10
2018-03-12T07:09:28.542Z,18.75
2018-03-12T07:10:34.597Z,19.42
2018-03-12T07:11:39.302Z,20.70
2018-03-12T07:12:43.822Z,20.45
2018-03-12T07:13:48.275Z,19.10
2018-03-12T07:14:52.762Z,19.85
2018-03-12T07:15:57.980Z,20.17
2018-03-12T07:17:02.434Z,18.30
2018-03-12T07:18:06.894Z,19.60
2018-03-12T07:19:11.353Z,19.17
2018-03-12T07:20:16.582Z,21.05
2018-03-12T07:21:21.094Z,19.73
2018-03-12T07:22:25.554Z,19.08
2018-03-12T07:23:30.010Z,18.60
2018-03-12T07:24:35.234Z,20.27
2018-03-12T07:25:40.482Z,19.37
2018-03-12T07:26:45.022Z,19.08
2018-03-12T07:27:49.473Z,17.90
2018-03-12T07:28:54.722Z,19.70
2018-03-12T07:29:59.206Z,17.92
2018-03-12T07:31:03.683Z,20.90
2018-03-12T07:32:08.125Z,18.55
2018-03-12T07:33:12.582Z,19.08
2018-03-12T07:34:17.049Z,18.48
2018-03-12T07:35:21.601Z,19.45
2018-03-12T07:36:26.081Z,20.65
2018-03-12T07:37:30.579Z,19.08
2018-03-12T07:38:38.770Z,17.95
2018-03-12T07:39:44.119Z,17.73
2018-03-12T07:40:48.571Z,20.90
2018-03-12T07:41:53.053Z,18.98
2018-03-12T07:42:58.271Z,18.62
2018-03-12T07:44:02.748Z,19.75
2018-03-12T07:45:07.206Z,18.65
2018-03-12T07:46:12.438Z,18.92
2018-03-12T07:47:17.686Z,18.08
2018-03-12T07:48:22.147Z,18.50
2018-03-12T07:49:26.869Z,16.85
2018-03-12T07:50:31.328Z,18.17
2018-03-12T07:51:35.785Z,18.87
2018-03-12T07:52:40.266Z,17.75
2018-03-12T07:53:44.722Z,17.42
2018-03-12T07:54:49.170Z,21.33
2018-03-12T07:55:53.633Z,18.80
2018-03-12T07:56:58.141Z,18.45
2018-03-12T07:58:02.621Z,18.42
2018-03-12T07:59:07.077Z,18.95
2018-03-12T08:00:11.522Z,20.00
2018-03-12T08:01:16.022Z,18.33
2018-03-12T08:02:20.634Z,19.20
2018-03-12T08:03:25.882Z,19.60
2018-03-12T08:04:30.337Z,19.55
2018-03-12T08:05:34.803Z,17.83
2018-03-12T08:06:39.825Z,20.08
2018-03-12T08:07:44.290Z,20.10
2018-03-12T08:08:48.772Z,19.52
2018-03-12T08:09:53.218Z,20.50
2018-03-12T08:10:57.683Z,21.83
2018-03-12T08:12:02.143Z,17.85
2018-03-12T08:13:06.589Z,18.67
2018-03-12T08:14:11.061Z,24.37
2018-03-12T08:15:15.526Z,17.15
2018-03-12T08:16:20.008Z,17.55
2018-03-12T08:17:24.635Z,18.55
2018-03-12T08:18:29.859Z,18.50
2018-03-12T08:19:35.097Z,16.62
2018-03-12T08:20:39.553Z,18.90
2018-03-12T08:21:44.002Z,18.10
2018-03-12T08:22:49.221Z,15.15
2018-03-12T08:23:53.679Z,16.40
2018-03-12T08:24:58.166Z,17.40
2018-03-12T08:26:02.626Z,18.67
2018-03-12T08:27:07.080Z,17.05
2018-03-12T08:28:12.304Z,20.12
2018-03-12T08:29:17.579Z,17.15
2018-03-12T08:30:22.069Z,17.83
2018-03-12T08:31:27.303Z,17.23
2018-03-12T08:32:31.762Z,17.87
2018-03-12T08:33:36.997Z,17.92
2018-03-12T08:34:41.458Z,17.95
2018-03-12T08:35:45.929Z,17.92
2018-03-12T08:36:51.155Z,21.87
2018-03-12T08:37:55.611Z,20.73
2018-03-12T08:39:00.082Z,18.73
2018-03-12T08:40:03.875Z,16.73
2018-03-12T08:41:09.146Z,21.17
2018-03-12T08:42:13.597Z,17.77
2018-03-12T08:43:18.060Z,17.17
2018-03-12T08:44:22.505Z,17.73
2018-03-12T08:45:26.984Z,19.23
2018-03-12T08:46:31.461Z,16.80
2018-03-12T08:47:35.913Z,18.55
2018-03-12T08:48:40.372Z,18.73
2018-03-12T08:49:44.826Z,17.42
2018-03-12T08:50:49.302Z,19.20
2018-03-12T08:51:53.769Z,18.33
2018-03-12T08:52:58.041Z,18.25
2018-03-12T08:54:03.274Z,20.27
2018-03-12T08:55:07.753Z,18.90
2018-03-12T08:56:12.215Z,19.48
2018-03-12T08:57:16.789Z,19.15
2018-03-12T08:58:22.737Z,18.42
2018-03-12T08:59:27.958Z,17.17
2018-03-12T09:00:32.419Z,18.15
2018-03-12T09:01:36.869Z,17.80
2018-03-12T09:02:41.410Z,18.00
2018-03-12T09:03:46.010Z,18.05
2018-03-12T09:04:50.497Z,18.65
2018-03-12T09:05:54.950Z,20.33
2018-03-12T09:07:00.165Z,19.60
2018-03-12T09:08:05.426Z,20.15
2018-03-12T09:09:09.988Z,18.20
2018-03-12T09:10:14.426Z,20.80
2018-03-12T09:11:18.574Z,20.90
2018-03-12T09:12:23.043Z,19.58
2018-03-12T09:13:28.293Z,18.70
2018-03-12T09:14:32.751Z,20.35
2018-03-12T09:15:37.219Z,18.75
2018-03-12T09:16:41.667Z,21.45
2018-03-12T09:17:46.122Z,18.40
2018-03-12T09:18:51.359Z,27.83
2018-03-12T09:19:55.822Z,17.92
2018-03-12T09:21:00.344Z,17.02
2018-03-12T09:22:04.948Z,19.40
2018-03-12T09:23:09.397Z,17.25
2018-03-12T09:24:14.656Z,18.35
2018-03-12T09:25:19.110Z,15.75
2018-03-12T09:26:23.572Z,17.83
2018-03-12T09:27:28.036Z,16.95
2018-03-12T09:28:32.497Z,15.90
2018-03-12T09:29:36.983Z,16.15
2018-03-12T09:30:42.204Z,21.75
2018-03-12T09:31:47.429Z,16.90
2018-03-12T09:32:51.886Z,17.37
2018-03-12T09:33:56.354Z,16.65
2018-03-12T09:35:01.602Z,15.50
2018-03-12T09:36:06.829Z,15.95
2018-03-12T09:37:12.055Z,17.60
2018-03-12T09:38:17.282Z,15.68
2018-03-12T09:39:22.508Z,15.40
2018-03-12T09:40:27.758Z,14.87
2018-03-12T09:41:32.218Z,16.10
2018-03-12T09:42:36.681Z,15.88
2018-03-12T09:43:41.128Z,14.68
2018-03-12T09:44:45.581Z,15.05
2018-03-12T09:45:50.823Z,14.05
2018-03-12T09:46:55.280Z,14.52
2018-03-12T09:47:59.751Z,15.02
2018-03-12T09:49:04.223Z,14.00
2018-03-12T09:50:08.673Z,13.05
2018-03-12T09:51:13.158Z,12.80
2018-03-12T09:52:17.606Z,11.65
2018-03-12T09:53:22.056Z,13.18
2018-03-12T09:54:26.511Z,12.65
2018-03-12T09:55:31.731Z,12.20
2018-03-12T09:56:36.978Z,12.52
2018-03-12T09:57:41.436Z,12.35
2018-03-12T09:58:45.917Z,12.63
2018-03-12T09:59:50.182Z,13.18
2018-03-12T10:00:54.641Z,12.93
2018-03-12T10:01:59.138Z,12.23
2018-03-12T10:03:03.593Z,13.20
2018-03-12T10:04:08.049Z,13.32
2018-03-12T10:05:12.502Z,13.80
2018-03-12T10:06:16.953Z,13.10
2018-03-12T10:07:22.202Z,13.68
2018-03-12T10:08:26.664Z,14.45
2018-03-12T10:09:31.122Z,13.60
2018-03-12T10:10:35.583Z,13.95
2018-03-12T10:11:40.089Z,15.93
2018-03-12T10:12:44.582Z,13.95
2018-03-12T10:13:49.046Z,15.15
2018-03-12T10:14:54.269Z,12.90
2018-03-12T10:15:58.726Z,13.50
2018-03-12T10:17:03.194Z,13.40
2018-03-12T10:18:08.498Z,12.65
2018-03-12T10:19:13.114Z,11.00
2018-03-12T10:20:17.634Z,13.23
2018-03-12T10:21:22.082Z,11.18
2018-03-12T10:22:27.282Z,9.32
2018-03-12T10:23:31.807Z,10.50
2018-03-12T10:24:36.410Z,10.88
2018-03-12T10:25:41.617Z,10.15
2018-03-12T10:26:46.058Z,10.00
2018-03-12T10:27:50.518Z,11.80
2018-03-12T10:28:54.985Z,10.60
2018-03-12T10:29:59.426Z,9.70
2018-03-12T10:31:03.861Z,7.85
2018-03-12T10:32:08.391Z,8.23
2018-03-12T10:33:12.820Z,8.38
2018-03-12T10:34:17.294Z,7.18
2018-03-12T10:35:21.732Z,8.98
2018-03-12T10:36:26.182Z,9.25
2018-03-12T10:37:31.388Z,7.30
2018-03-12T10:38:35.817Z,8.40
2018-03-12T10:39:40.710Z,8.15
2018-03-12T10:40:45.207Z,7.32
2018-03-12T10:41:49.643Z,8.73
2018-03-12T10:42:54.128Z,8.02
2018-03-12T10:43:58.559Z,7.53
2018-03-12T10:45:03.025Z,7.25
2018-03-12T10:46:07.470Z,6.70
2018-03-12T10:47:11.902Z,7.10
2018-03-12T10:48:16.330Z,7.12
2018-03-12T10:49:21.537Z,6.95
2018-03-12T10:50:25.982Z,7.12
2018-03-12T10:51:30.496Z,6.97
2018-03-12T10:52:35.093Z,7.97
2018-03-12T10:53:40.293Z,6.22
2018-03-12T10:54:44.733Z,7.22
2018-03-12T10:55:49.961Z,6.65
2018-03-12T10:56:55.173Z,6.62
2018-03-12T10:57:59.612Z,6.22
2018-03-12T10:59:04.054Z,6.22
2018-03-12T11:00:08.319Z,6.25
2018-03-12T11:01:19.110Z,6.32
2018-03-12T11:02:27.883Z,7.78
2018-03-12T11:03:32.902Z,6.53
2018-03-12T11:04:37.925Z,6.78
2018-03-12T11:05:48.657Z,7.00
2018-03-12T11:06:58.673Z,7.50
2018-03-12T11:08:03.114Z,6.82
2018-03-12T11:09:07.558Z,6.70
2018-03-12T11:10:12.781Z,6.93
2018-03-12T11:11:17.989Z,6.57
2018-03-12T11:12:22.453Z,6.97
2018-03-12T11:13:26.881Z,7.85
2018-03-12T11:14:31.315Z,6.95
2018-03-12T11:15:35.761Z,5.93
2018-03-12T11:16:40.206Z,6.40
2018-03-12T11:17:45.101Z,6.03
2018-03-12T11:18:49.548Z,6.78
2018-03-12T11:19:54.012Z,6.65
2018-03-12T11:20:59.296Z,6.60
2018-03-12T11:22:03.720Z,6.68
2018-03-12T11:23:08.229Z,5.75
2018-03-12T11:24:12.660Z,6.20
2018-03-12T11:25:17.111Z,6.50
2018-03-12T11:26:21.538Z,6.90
2018-03-12T11:27:25.781Z,5.43
2018-03-12T11:28:30.247Z,5.28
2018-03-12T11:29:34.698Z,5.40
2018-03-12T11:30:39.145Z,4.20
2018-03-12T11:31:43.591Z,4.22
2018-03-12T11:32:48.047Z,4.25
2018-03-12T11:33:53.140Z,4.28
2018-03-12T11:34:57.578Z,3.58
2018-03-12T11:36:02.794Z,3.58
2018-03-12T11:37:07.239Z,3.90
2018-03-12T11:38:11.696Z,4.22
2018-03-12T11:39:16.153Z,3.53
2018-03-12T11:40:20.628Z,3.40
2018-03-12T11:41:25.071Z,3.47
2018-03-12T11:42:30.307Z,3.53
2018-03-12T11:43:35.506Z,3.50
2018-03-12T11:44:39.977Z,3.40
2018-03-12T11:45:44.456Z,2.67
2018-03-12T11:46:49.741Z,3.87
2018-03-12T11:47:54.194Z,4.12
2018-03-12T11:48:59.397Z,3.30
2018-03-12T11:50:03.535Z,3.20
2018-03-12T11:51:08.746Z,3.80
2018-03-12T11:52:13.261Z,3.17
2018-03-12T11:53:17.686Z,3.62
2018-03-12T11:54:22.157Z,3.10
2018-03-12T11:55:26.636Z,3.40
2018-03-12T11:56:31.082Z,3.42
2018-03-12T11:57:35.522Z,3.00
2018-03-12T11:58:40.730Z,2.50
2018-03-12T11:59:45.984Z,2.62
2018-03-12T12:00:50.635Z,2.72
2018-03-12T12:01:55.083Z,3.25
2018-03-12T12:02:59.555Z,2.60
2018-03-12T12:04:03.986Z,2.50
2018-03-12T12:05:08.433Z,2.30
2018-03-12T12:06:12.889Z,2.60
2018-03-12T12:07:17.329Z,2.58
2018-03-12T12:08:21.783Z,2.45
2018-03-12T12:09:26.231Z,1.90
2018-03-12T12:10:30.694Z,2.80
2018-03-12T12:11:35.957Z,2.50
2018-03-12T12:12:40.398Z,2.78
2018-03-12T12:13:44.880Z,3.60
2018-03-12T12:14:50.440Z,3.78
2018-03-12T12:15:54.879Z,3.87
2018-03-12T12:17:00.110Z,3.50
2018-03-12T12:18:04.999Z,4.03
2018-03-12T12:19:09.433Z,3.28
2018-03-12T12:20:13.879Z,4.50
2018-03-12T12:21:18.362Z,5.55
2018-03-12T12:22:22.830Z,6.22
2018-03-12T12:23:27.259Z,7.22
2018-03-12T12:24:31.702Z,5.28
2018-03-12T12:25:36.962Z,5.93
2018-03-12T12:26:41.410Z,5.40
2018-03-12T12:27:45.893Z,5.80
2018-03-12T12:28:50.336Z,7.72
2018-03-12T12:29:54.782Z,5.78
2018-03-12T12:30:59.990Z,6.85
2018-03-12T12:32:04.476Z,5.93
2018-03-12T12:33:08.937Z,6.50
2018-03-12T12:34:14.209Z,6.80
2018-03-12T12:35:18.833Z,6.62
2018-03-12T12:36:23.269Z,7.30
2018-03-12T12:37:27.751Z,6.70
2018-03-12T12:38:32.217Z,7.00
2018-03-12T12:39:37.429Z,6.95
2018-03-12T12:40:42.664Z,6.40
2018-03-12T12:41:47.906Z,8.05
2018-03-12T12:42:53.126Z,7.40
2018-03-12T12:43:57.599Z,6.20
2018-03-12T12:45:02.026Z,7.45
2018-03-12T12:46:07.236Z,6.75
2018-03-12T12:47:11.668Z,7.15
2018-03-12T12:48:16.107Z,7.57
2018-03-12T12:49:20.596Z,9.95
2018-03-12T12:50:25.064Z,6.80
2018-03-12T12:51:29.695Z,9.07
2018-03-12T12:52:34.147Z,8.30
2018-03-12T12:53:38.566Z,7.12
2018-03-12T12:54:43.034Z,6.70
2018-03-12T12:55:47.470Z,7.43
2018-03-12T12:56:51.915Z,7.50
2018-03-12T12:57:56.374Z,6.93
2018-03-12T12:59:00.802Z,7.75
2018-03-12T13:00:04.934Z,7.37
2018-03-12T13:01:09.050Z,8.23
2018-03-12T13:02:13.473Z,7.65
2018-03-12T13:03:17.930Z,7.55
2018-03-12T13:04:22.367Z,7.25
2018-03-12T13:05:27.018Z,7.15
2018-03-12T13:06:31.482Z,8.25
2018-03-12T13:07:36.924Z,7.53
2018-03-12T13:08:42.123Z,7.75
2018-03-12T13:09:46.578Z,7.50
2018-03-12T13:10:51.056Z,8.02
2018-03-12T13:11:55.499Z,7.87
2018-03-12T13:12:59.935Z,7.25
2018-03-12T13:14:04.433Z,7.72
2018-03-12T13:15:08.900Z,7.55
2018-03-12T13:16:14.160Z,6.87
2018-03-12T13:17:19.562Z,7.97
2018-03-12T13:18:23.994Z,7.90
2018-03-12T13:19:28.426Z,7.53
2018-03-12T13:20:32.881Z,8.73
2018-03-12T13:21:37.568Z,7.82
2018-03-12T13:22:42.036Z,8.27
2018-03-12T13:23:46.791Z,7.35
2018-03-12T13:24:51.264Z,6.93
2018-03-12T13:25:56.344Z,6.72
2018-03-12T13:27:00.825Z,8.60
2018-03-12T13:28:05.267Z,7.15
2018-03-12T13:29:09.697Z,7.50
2018-03-12T13:30:14.953Z,7.57
2018-03-12T13:31:19.408Z,7.93
2018-03-12T13:32:24.065Z,7.10
2018-03-12T13:33:29.278Z,8.10
2018-03-12T13:34:33.725Z,7.90
2018-03-12T13:35:38.926Z,7.40
2018-03-12T13:36:44.192Z,7.57
2018-03-12T13:37:48.655Z,9.38
2018-03-12T13:38:53.115Z,8.25
2018-03-12T13:39:57.574Z,8.90
2018-03-12T13:41:02.014Z,7.55
2018-03-12T13:42:07.222Z,7.60
2018-03-12T13:43:11.696Z,7.05
2018-03-12T13:44:16.342Z,7.85
2018-03-12T13:45:20.778Z,7.50
2018-03-12T13:46:25.988Z,8.70
2018-03-12T13:47:30.426Z,6.60
2018-03-12T13:48:35.678Z,8.43
2018-03-12T13:49:40.185Z,6.47
2018-03-12T13:50:44.842Z,8.27
2018-03-12T13:51:49.319Z,7.32
2018-03-12T13:52:53.779Z,8.55
2018-03-12T13:53:58.532Z,7.55
2018-03-12T13:55:03.125Z,6.80
2018-03-12T13:56:08.333Z,7.70
2018-03-12T13:57:12.769Z,7.55
2018-03-12T13:58:17.971Z,8.25
2018-03-12T13:59:22.433Z,8.50
2018-03-12T14:00:29.151Z,8.85
2018-03-12T14:01:33.398Z,8.82